createdAt,value
2023-02-15T00:00:15.888Z,21.17
2023-02-15T00:02:42.276Z,20.95
2023-02-15T00:05:08.708Z,20.43
2023-02-15T00:07:35.142Z,21.70
2023-02-15T00:10:01.545Z,22.98
2023-02-15T00:12:27.956Z,22.77
2023-02-15T00:14:54.382Z,23.21
2023-02-15T00:17:20.789Z,22.97
2023-02-15T00:19:47.191Z,24.82
2023-02-15T00:22:13.622Z,27.29
2023-02-15T00:24:40.040Z,26.10
2023-02-15T00:27:06.964Z,26.28
2023-02-15T00:29:33.562Z,27.14
2023-02-15T00:32:00.021Z,26.51
2023-02-15T00:34:26.436Z,22.97
2023-02-15T00:36:52.880Z,17.42
2023-02-15T00:39:19.287Z,15.87
2023-02-15T00:41:45.702Z,18.13
2023-02-15T00:44:12.112Z,20.83
2023-02-15T00:46:38.547Z,16.09
2023-02-15T00:49:04.954Z,12.19
2023-02-15T00:51:31.369Z,14.58
2023-02-15T00:53:57.772Z,15.74
2023-02-15T00:56:24.214Z,14.63
2023-02-15T00:58:50.629Z,20.13
2023-02-15T01:01:17.105Z,23.87
2023-02-15T01:03:43.540Z,27.86
2023-02-15T01:06:09.983Z,27.24
2023-02-15T01:08:36.429Z,26.95
2023-02-15T01:11:02.844Z,26.08
2023-02-15T01:13:29.234Z,26.12
2023-02-15T01:15:55.712Z,26.74
2023-02-15T01:18:22.247Z,27.52
2023-02-15T01:20:48.631Z,27.43
2023-02-15T01:23:15.017Z,28.10
2023-02-15T01:25:41.697Z,26.72
2023-02-15T01:28:08.116Z,29.74
2023-02-15T01:30:34.905Z,32.60
2023-02-15T01:33:01.591Z,33.37
2023-02-15T01:35:28.319Z,33.13
2023-02-15T01:37:54.736Z,32.52
2023-02-15T01:40:21.515Z,34.30
2023-02-15T01:42:48.011Z,34.42
2023-02-15T01:45:14.701Z,33.36
2023-02-15T01:47:42.345Z,33.97
2023-02-15T01:50:08.908Z,36.95
2023-02-15T01:52:35.560Z,38.00
2023-02-15T01:55:03.172Z,38.16
2023-02-15T01:57:29.773Z,35.39
2023-02-15T01:59:56.222Z,31.30
2023-02-15T02:02:23.935Z,32.69
2023-02-15T02:04:52.595Z,32.33
2023-02-15T02:07:19.156Z,31.06
2023-02-15T02:09:46.779Z,28.46
2023-02-15T02:12:14.383Z,25.43
2023-02-15T02:14:41.010Z,24.87
2023-02-15T02:17:07.938Z,48.76
2023-02-15T02:19:34.348Z,72.55
2023-02-15T02:22:00.806Z,33.63
2023-02-15T02:24:28.341Z,33.23
2023-02-15T02:26:55.011Z,30.97
2023-02-15T02:29:22.571Z,29.52
2023-02-15T02:31:49.038Z,29.62
2023-02-15T02:34:16.769Z,29.23
2023-02-15T02:36:43.388Z,29.34
2023-02-15T02:39:10.963Z,29.27
2023-02-15T02:41:37.573Z,26.35
2023-02-15T02:44:05.167Z,26.17
2023-02-15T02:46:31.832Z,24.07
2023-02-15T02:48:59.346Z,17.15
2023-02-15T02:51:25.970Z,11.47
2023-02-15T02:53:52.563Z,11.26
2023-02-15T02:56:18.996Z,13.24
2023-02-15T02:58:45.397Z,17.11
2023-02-15T03:01:12.360Z,20.96
2023-02-15T03:03:40.939Z,21.88
2023-02-15T03:06:07.552Z,19.64
2023-02-15T03:08:34.383Z,16.23
2023-02-15T03:11:01.735Z,16.82
2023-02-15T03:13:28.336Z,16.66
2023-02-15T03:15:54.988Z,18.32
2023-02-15T03:18:22.576Z,18.48
2023-02-15T03:20:49.178Z,17.07
2023-02-15T03:23:15.743Z,19.62
2023-02-15T03:25:43.348Z,20.11
2023-02-15T03:28:09.953Z,19.65
2023-02-15T03:30:36.539Z,23.54
2023-02-15T03:33:04.185Z,25.59
2023-02-15T03:35:30.825Z,28.11
2023-02-15T03:37:57.236Z,24.94
2023-02-15T03:40:24.016Z,22.52
2023-02-15T03:42:50.716Z,22.45
2023-02-15T03:45:18.293Z,17.58
2023-02-15T03:47:44.893Z,15.87
2023-02-15T03:50:11.596Z,17.53
2023-02-15T03:52:39.100Z,19.38
2023-02-15T03:55:05.581Z,20.99
2023-02-15T03:57:32.329Z,22.05
2023-02-15T03:59:58.900Z,23.09
2023-02-15T04:02:25.516Z,25.56
2023-02-15T04:04:51.921Z,25.19
2023-02-15T04:07:18.685Z,27.92
2023-02-15T04:09:45.136Z,25.93
2023-02-15T04:12:11.857Z,29.23
2023-02-15T04:14:38.297Z,27.84
2023-02-15T04:17:04.683Z,28.93
2023-02-15T04:19:31.108Z,28.12
2023-02-15T04:21:58.256Z,36.00
2023-02-15T04:24:25.096Z,51.67
2023-02-15T04:26:52.410Z,42.34
2023-02-15T04:29:19.011Z,32.52
2023-02-15T04:31:45.494Z,28.60
2023-02-15T04:34:11.953Z,30.32
2023-02-15T04:36:38.382Z,31.56
2023-02-15T04:39:05.408Z,29.88
2023-02-15T04:41:34.020Z,29.45
2023-02-15T04:44:01.801Z,28.34
2023-02-15T04:46:29.194Z,26.66
2023-02-15T04:48:55.786Z,27.06
2023-02-15T04:51:24.389Z,27.49
2023-02-15T04:53:50.817Z,28.20
2023-02-15T04:56:17.282Z,26.44
2023-02-15T04:58:43.679Z,23.76
2023-02-15T05:01:10.080Z,21.16
2023-02-15T05:03:36.507Z,25.46
2023-02-15T05:06:03.238Z,25.29
2023-02-15T05:08:29.817Z,25.76
2023-02-15T05:10:57.127Z,26.12
2023-02-15T05:13:23.725Z,26.65
2023-02-15T05:15:52.343Z,26.51
2023-02-15T05:18:19.946Z,25.15
2023-02-15T05:20:46.334Z,24.38
2023-02-15T05:23:12.822Z,24.19
2023-02-15T05:25:39.743Z,23.33
2023-02-15T05:28:06.427Z,24.79
2023-02-15T05:30:34.082Z,25.18
2023-02-15T05:33:01.550Z,27.30
2023-02-15T05:35:29.116Z,27.93
2023-02-15T05:37:55.743Z,28.50
2023-02-15T05:40:22.209Z,27.64
2023-02-15T05:42:48.908Z,26.31
2023-02-15T05:45:15.532Z,21.79
2023-02-15T05:47:42.120Z,20.17
2023-02-15T05:50:08.726Z,21.63
2023-02-15T05:52:35.388Z,21.35
2023-02-15T05:55:02.074Z,22.98
2023-02-15T05:57:28.849Z,20.83
2023-02-15T05:59:55.263Z,22.54
2023-02-15T06:02:21.740Z,22.85
2023-02-15T06:04:48.177Z,20.50
2023-02-15T06:07:14.634Z,21.85
2023-02-15T06:09:41.072Z,20.75
2023-02-15T06:12:07.485Z,22.92
2023-02-15T06:14:34.748Z,23.42
2023-02-15T06:17:02.369Z,26.90
2023-02-15T06:19:28.978Z,30.60
2023-02-15T06:21:55.574Z,27.99
2023-02-15T06:24:23.184Z,22.31
2023-02-15T06:26:49.579Z,19.97
2023-02-15T06:29:16.369Z,21.59
2023-02-15T06:31:45.268Z,22.69
2023-02-15T06:34:12.576Z,22.84
2023-02-15T06:36:41.166Z,24.11
2023-02-15T06:39:07.762Z,31.08
2023-02-15T06:41:34.166Z,35.28
2023-02-15T06:44:00.592Z,29.17
2023-02-15T06:46:27.026Z,28.17
2023-02-15T06:48:53.480Z,27.53
2023-02-15T06:51:20.853Z,27.62
2023-02-15T06:53:47.313Z,26.95
2023-02-15T06:56:13.735Z,25.56
2023-02-15T06:58:40.235Z,27.32
2023-02-15T07:01:06.659Z,29.03
2023-02-15T07:03:33.251Z,30.49
2023-02-15T07:06:00.779Z,30.54
2023-02-15T07:08:28.097Z,28.96
2023-02-15T07:10:54.860Z,28.65
2023-02-15T07:13:21.592Z,28.68
2023-02-15T07:15:48.073Z,28.27
2023-02-15T07:18:14.811Z,28.70
2023-02-15T07:20:41.417Z,29.17
2023-02-15T07:23:07.981Z,27.92
2023-02-15T07:25:34.442Z,28.91
2023-02-15T07:28:01.294Z,28.17
2023-02-15T07:30:27.998Z,28.20
2023-02-15T07:32:54.722Z,29.34
2023-02-15T07:35:21.442Z,27.76
2023-02-15T07:37:48.053Z,27.90
2023-02-15T07:40:14.480Z,29.02
2023-02-15T07:42:41.411Z,28.05
2023-02-15T07:45:10.011Z,27.54
2023-02-15T07:47:36.640Z,26.67
2023-02-15T07:50:03.459Z,27.73
2023-02-15T07:52:30.034Z,28.51
2023-02-15T07:54:56.476Z,31.84
2023-02-15T07:57:25.032Z,36.41
2023-02-15T07:59:51.635Z,36.43
2023-02-15T08:02:19.223Z,37.45
2023-02-15T08:04:45.820Z,35.71
2023-02-15T08:07:12.244Z,40.34
2023-02-15T08:09:38.674Z,43.74
2023-02-15T08:12:05.087Z,44.62
2023-02-15T08:14:31.528Z,45.64
2023-02-15T08:16:58.844Z,45.99
2023-02-15T08:19:26.432Z,47.65
2023-02-15T08:21:53.022Z,48.70
2023-02-15T08:24:19.786Z,50.25
2023-02-15T08:26:46.385Z,49.74
2023-02-15T08:29:13.047Z,49.27
2023-02-15T08:31:39.781Z,45.22
2023-02-15T08:34:07.306Z,42.61
2023-02-15T08:36:33.737Z,38.20
2023-02-15T08:39:00.471Z,42.69
2023-02-15T08:41:28.061Z,39.09
2023-02-15T08:43:54.714Z,36.01
2023-02-15T08:46:21.315Z,32.65
2023-02-15T08:48:48.897Z,38.73
2023-02-15T08:51:15.340Z,39.58
2023-02-15T08:53:41.748Z,38.52
2023-02-15T08:56:08.167Z,30.40
2023-02-15T08:58:35.276Z,27.50
2023-02-15T09:01:02.022Z,30.05
2023-02-15T09:03:28.982Z,28.78
2023-02-15T09:05:56.079Z,28.63
2023-02-15T09:08:22.565Z,29.68
2023-02-15T09:10:49.095Z,34.00
2023-02-15T09:13:15.562Z,33.16
2023-02-15T09:15:42.522Z,35.59
2023-02-15T09:18:09.123Z,34.94
2023-02-15T09:20:35.866Z,31.70
2023-02-15T09:23:04.431Z,31.57
2023-02-15T09:25:32.062Z,32.53
2023-02-15T09:28:00.650Z,34.95
2023-02-15T09:30:27.198Z,35.43
2023-02-15T09:32:54.858Z,35.21
2023-02-15T09:35:21.279Z,34.11
2023-02-15T09:37:47.675Z,34.82
2023-02-15T09:40:14.102Z,33.32
2023-02-15T09:42:41.310Z,34.00
2023-02-15T09:45:08.829Z,36.08
2023-02-15T09:47:35.253Z,35.22
2023-02-15T09:50:01.992Z,34.98
2023-02-15T09:52:28.425Z,33.45
2023-02-15T09:54:54.827Z,33.90
2023-02-15T09:57:21.246Z,34.90
2023-02-15T09:59:47.680Z,33.66
2023-02-15T10:02:14.132Z,35.01
2023-02-15T10:04:40.599Z,35.49
2023-02-15T10:07:07.148Z,34.93
2023-02-15T10:09:33.808Z,34.22
2023-02-15T10:12:00.393Z,35.15
2023-02-15T10:14:27.003Z,38.42
2023-02-15T10:16:53.540Z,39.21
2023-02-15T10:19:20.194Z,37.61
2023-02-15T10:21:46.599Z,37.35
2023-02-15T10:24:13.042Z,38.67
2023-02-15T10:26:39.442Z,39.59
2023-02-15T10:29:05.930Z,40.87
2023-02-15T10:31:32.415Z,40.36
2023-02-15T10:33:59.867Z,38.67
2023-02-15T10:36:27.487Z,38.07
2023-02-15T10:38:55.092Z,40.62
2023-02-15T10:41:21.473Z,42.62
2023-02-15T10:43:47.890Z,43.02
2023-02-15T10:46:14.860Z,37.93
2023-02-15T10:48:41.287Z,39.54
2023-02-15T10:51:07.692Z,41.67
2023-02-15T10:53:34.100Z,39.77
2023-02-15T10:56:01.666Z,41.36
2023-02-15T10:58:28.086Z,39.63
2023-02-15T11:00:54.555Z,38.38
2023-02-15T11:03:21.420Z,36.33
2023-02-15T11:05:48.018Z,37.18
2023-02-15T11:08:16.623Z,40.90
2023-02-15T11:10:44.232Z,41.82
2023-02-15T11:13:13.020Z,40.36
2023-02-15T11:15:39.554Z,40.62
2023-02-15T11:18:06.014Z,38.18
2023-02-15T11:20:32.443Z,38.61
2023-02-15T11:22:58.866Z,40.38
2023-02-15T11:25:25.796Z,39.49
2023-02-15T11:27:52.599Z,40.49
2023-02-15T11:30:19.225Z,39.99
2023-02-15T11:32:45.788Z,39.09
2023-02-15T11:35:12.207Z,39.78
2023-02-15T11:37:38.642Z,39.84
2023-02-15T11:40:05.825Z,38.69
2023-02-15T11:42:32.225Z,38.63
2023-02-15T11:44:58.659Z,38.91
2023-02-15T11:47:25.580Z,40.29
2023-02-15T11:49:55.190Z,39.55
2023-02-15T11:52:23.795Z,39.70
2023-02-15T11:54:54.140Z,40.54
2023-02-15T11:57:23.145Z,41.03
2023-02-15T11:59:49.673Z,41.45
2023-02-15T12:02:16.122Z,40.99
2023-02-15T12:04:42.541Z,38.24
2023-02-15T12:07:09.001Z,39.12
2023-02-15T12:09:35.396Z,39.81
2023-02-15T12:12:01.791Z,41.07
2023-02-15T12:14:28.215Z,40.87
2023-02-15T12:16:54.656Z,43.22
2023-02-15T12:19:21.075Z,42.06
2023-02-15T12:21:47.507Z,42.27
2023-02-15T12:24:13.990Z,42.45
2023-02-15T12:26:40.398Z,42.81
2023-02-15T12:29:06.814Z,42.84
2023-02-15T12:31:33.388Z,41.98
2023-02-15T12:33:59.869Z,41.17
2023-02-15T12:36:26.278Z,41.24
2023-02-15T12:38:52.714Z,41.57
2023-02-15T12:41:19.138Z,40.96
2023-02-15T12:43:45.546Z,42.01
2023-02-15T12:46:12.013Z,40.40
2023-02-15T12:48:40.659Z,43.11
2023-02-15T12:51:07.862Z,41.53
2023-02-15T12:53:34.525Z,40.75
2023-02-15T12:56:00.944Z,42.94
2023-02-15T12:58:27.370Z,42.06
2023-02-15T13:00:53.809Z,39.33
2023-02-15T13:03:20.198Z,40.30
2023-02-15T13:05:46.619Z,39.59
2023-02-15T13:08:13.263Z,37.34
2023-02-15T13:10:39.665Z,38.29
2023-02-15T13:13:06.098Z,37.30
2023-02-15T13:15:32.524Z,36.33
2023-02-15T13:17:58.994Z,37.28
2023-02-15T13:20:25.439Z,36.46
2023-02-15T13:22:51.839Z,36.04
2023-02-15T13:25:18.240Z,35.88
2023-02-15T13:27:44.656Z,35.88
2023-02-15T13:30:11.136Z,35.64
2023-02-15T13:32:37.597Z,34.76
2023-02-15T13:35:06.376Z,35.89
2023-02-15T13:37:32.955Z,35.81
2023-02-15T13:39:59.361Z,35.47
2023-02-15T13:42:25.773Z,35.96
2023-02-15T13:44:53.013Z,34.82
2023-02-15T13:47:19.395Z,35.56
2023-02-15T13:49:45.804Z,35.38
2023-02-15T13:52:12.200Z,35.15
2023-02-15T13:54:38.607Z,35.88
2023-02-15T13:57:05.038Z,34.74
2023-02-15T13:59:31.419Z,33.88
2023-02-15T14:01:57.831Z,33.56
2023-02-15T14:04:24.444Z,32.98
2023-02-15T14:06:50.921Z,31.79
2023-02-15T14:09:17.349Z,33.97
2023-02-15T14:11:43.799Z,32.91
2023-02-15T14:14:10.224Z,32.20
2023-02-15T14:16:36.722Z,31.60
2023-02-15T14:19:03.201Z,32.11
2023-02-15T14:21:29.602Z,32.30
2023-02-15T14:23:56.049Z,32.65
2023-02-15T14:26:23.618Z,31.61
2023-02-15T14:28:51.074Z,30.94
2023-02-15T14:31:19.822Z,33.90
2023-02-15T14:33:47.312Z,32.07
2023-02-15T14:36:15.892Z,31.55
2023-02-15T14:38:46.915Z,32.59
2023-02-15T14:41:16.109Z,34.18
2023-02-15T14:43:45.060Z,36.54
2023-02-15T14:46:14.087Z,36.50
2023-02-15T14:48:42.001Z,33.98
2023-02-15T14:51:11.217Z,32.13
2023-02-15T14:53:41.525Z,33.39
2023-02-15T14:56:09.757Z,33.32
2023-02-15T14:58:36.339Z,34.69
2023-02-15T15:01:03.186Z,33.19
2023-02-15T15:03:29.907Z,33.30
2023-02-15T15:05:56.374Z,32.23
2023-02-15T15:08:22.762Z,32.18
2023-02-15T15:10:49.253Z,31.94
2023-02-15T15:13:15.679Z,32.82
2023-02-15T15:15:42.152Z,32.35
2023-02-15T15:18:08.574Z,32.87
2023-02-15T15:20:34.982Z,32.68
2023-02-15T15:23:01.402Z,33.94
2023-02-15T15:25:27.840Z,33.45
2023-02-15T15:27:54.325Z,32.15
2023-02-15T15:30:20.808Z,33.31
2023-02-15T15:32:47.290Z,33.02
2023-02-15T15:35:13.709Z,32.70
2023-02-15T15:37:40.148Z,32.55
2023-02-15T15:40:06.652Z,32.98
2023-02-15T15:42:33.117Z,35.19
2023-02-15T15:44:59.590Z,35.10
2023-02-15T15:47:26.038Z,35.07
2023-02-15T15:49:52.516Z,31.44
2023-02-15T15:52:18.916Z,29.62
2023-02-15T15:54:45.328Z,28.76
2023-02-15T15:57:12.313Z,25.00
2023-02-15T15:59:38.753Z,20.39
2023-02-15T16:02:05.208Z,18.76
2023-02-15T16:04:31.619Z,17.11
2023-02-15T16:06:58.053Z,19.92
2023-02-15T16:09:24.473Z,30.93
2023-02-15T16:11:50.915Z,33.59
2023-02-15T16:14:17.309Z,33.13
2023-02-15T16:16:43.914Z,30.86
2023-02-15T16:19:10.298Z,30.95
2023-02-15T16:21:36.702Z,30.50
2023-02-15T16:24:03.113Z,29.58
2023-02-15T16:26:29.534Z,28.95
2023-02-15T16:28:55.937Z,26.81
2023-02-15T16:31:22.440Z,23.55
2023-02-15T16:33:48.892Z,19.79
2023-02-15T16:36:15.322Z,16.64
2023-02-15T16:38:41.747Z,16.45
2023-02-15T16:41:08.154Z,15.75
2023-02-15T16:43:34.568Z,15.20
2023-02-15T16:46:00.987Z,13.06
2023-02-15T16:48:27.449Z,11.82
2023-02-15T16:50:53.906Z,12.18
2023-02-15T16:53:20.311Z,11.95
2023-02-15T16:55:46.754Z,10.84
2023-02-15T16:58:13.139Z,12.43
2023-02-15T17:00:39.613Z,17.51
2023-02-15T17:03:06.008Z,34.30
2023-02-15T17:05:32.402Z,23.00
2023-02-15T17:07:58.821Z,14.76
2023-02-15T17:10:25.300Z,16.71
2023-02-15T17:12:51.737Z,18.10
2023-02-15T17:15:18.138Z,15.94
2023-02-15T17:17:44.578Z,15.91
2023-02-15T17:20:11.002Z,15.21
2023-02-15T17:22:37.408Z,14.12
2023-02-15T17:25:03.842Z,11.30
2023-02-15T17:27:30.320Z,23.68
2023-02-15T17:29:56.890Z,18.97
2023-02-15T17:32:23.582Z,16.43
2023-02-15T17:34:50.052Z,13.97
2023-02-15T17:37:16.468Z,14.17
2023-02-15T17:39:42.869Z,14.19
2023-02-15T17:42:09.311Z,13.57
2023-02-15T17:44:35.716Z,12.73
2023-02-15T17:47:02.125Z,19.99
2023-02-15T17:49:28.542Z,16.73
2023-02-15T17:51:54.970Z,14.70
2023-02-15T17:54:21.369Z,56.37
2023-02-15T17:56:47.775Z,33.31
2023-02-15T17:59:14.276Z,15.45
2023-02-15T18:01:40.800Z,15.64
2023-02-15T18:04:07.287Z,15.06
2023-02-15T18:06:33.736Z,16.24
2023-02-15T18:09:00.174Z,15.84
2023-02-15T18:11:26.575Z,16.97
2023-02-15T18:13:52.975Z,16.80
2023-02-15T18:16:19.427Z,16.15
2023-02-15T18:18:45.846Z,17.37
2023-02-15T18:21:12.357Z,17.63
2023-02-15T18:23:38.801Z,18.02
2023-02-15T18:26:05.348Z,18.06
2023-02-15T18:28:31.847Z,15.49
2023-02-15T18:30:58.265Z,13.14
2023-02-15T18:33:24.677Z,11.52
2023-02-15T18:35:51.140Z,13.17
2023-02-15T18:38:17.542Z,15.82
2023-02-15T18:40:43.970Z,16.31
2023-02-15T18:43:10.399Z,16.53
2023-02-15T18:45:36.867Z,18.30
2023-02-15T18:48:03.325Z,18.40
2023-02-15T18:50:29.766Z,17.82
2023-02-15T18:52:56.296Z,17.89
2023-02-15T18:55:22.723Z,22.68
2023-02-15T18:57:49.133Z,26.62
2023-02-15T19:00:15.568Z,22.64
2023-02-15T19:02:42.033Z,28.21
2023-02-15T19:05:08.488Z,71.43
2023-02-15T19:07:34.918Z,37.71
2023-02-15T19:10:01.339Z,25.96
2023-02-15T19:12:27.757Z,24.83
2023-02-15T19:14:54.423Z,24.38
2023-02-15T19:17:22.127Z,22.06
2023-02-15T19:19:48.517Z,19.43
2023-02-15T19:22:14.945Z,19.24
2023-02-15T19:24:41.363Z,18.87
2023-02-15T19:27:07.762Z,17.31
2023-02-15T19:29:34.621Z,18.19
2023-02-15T19:32:01.144Z,16.97
2023-02-15T19:34:27.610Z,17.91
2023-02-15T19:36:54.031Z,17.84
2023-02-15T19:39:22.889Z,18.32
2023-02-15T19:41:49.312Z,17.49
2023-02-15T19:44:15.714Z,15.03
2023-02-15T19:46:42.193Z,12.90
2023-02-15T19:49:08.669Z,12.48
2023-02-15T19:51:35.145Z,13.35
2023-02-15T19:54:01.604Z,11.12
2023-02-15T19:56:28.040Z,9.88
2023-02-15T19:58:54.898Z,8.52
2023-02-15T20:01:21.452Z,8.52
2023-02-15T20:03:51.141Z,8.43
2023-02-15T20:06:17.563Z,9.29
2023-02-15T20:08:44.090Z,10.29
2023-02-15T20:11:10.565Z,11.98
2023-02-15T20:13:37.108Z,12.74
2023-02-15T20:16:03.586Z,13.18
2023-02-15T20:18:30.195Z,12.74
2023-02-15T20:21:01.796Z,11.65
2023-02-15T20:23:30.962Z,10.05
2023-02-15T20:25:57.779Z,8.81
2023-02-15T20:28:24.213Z,7.89
2023-02-15T20:30:50.667Z,7.20
2023-02-15T20:33:17.091Z,7.12
2023-02-15T20:35:43.494Z,6.70
2023-02-15T20:38:09.913Z,6.18
2023-02-15T20:40:36.367Z,5.87
2023-02-15T20:43:02.793Z,5.73
2023-02-15T20:45:29.383Z,6.27
2023-02-15T20:47:55.821Z,6.41
2023-02-15T20:50:22.340Z,6.72
2023-02-15T20:52:48.747Z,7.81
2023-02-15T20:55:15.351Z,8.67
2023-02-15T20:57:41.731Z,8.64
2023-02-15T21:00:08.109Z,8.27
2023-02-15T21:02:34.787Z,8.37
2023-02-15T21:05:01.199Z,9.73
2023-02-15T21:07:27.607Z,11.00
2023-02-15T21:09:54.010Z,11.37
2023-02-15T21:12:20.406Z,11.04
2023-02-15T21:14:46.862Z,10.67
2023-02-15T21:17:13.277Z,11.80
2023-02-15T21:19:41.107Z,14.09
2023-02-15T21:22:07.760Z,14.97
2023-02-15T21:24:34.271Z,15.15
2023-02-15T21:27:00.690Z,16.26
2023-02-15T21:29:27.097Z,16.70
2023-02-15T21:31:53.666Z,16.26
2023-02-15T21:34:20.118Z,17.04
2023-02-15T21:36:46.511Z,17.22
2023-02-15T21:39:12.917Z,15.86
2023-02-15T21:41:39.300Z,13.69
2023-02-15T21:44:05.871Z,12.09
2023-02-15T21:46:32.414Z,12.18
2023-02-15T21:48:58.951Z,14.00
2023-02-15T21:51:25.397Z,13.51
2023-02-15T21:53:51.804Z,13.56
2023-02-15T21:56:18.238Z,14.56
2023-02-15T21:58:44.647Z,14.65
2023-02-15T22:01:11.109Z,14.48
2023-02-15T22:03:37.575Z,14.21
2023-02-15T22:06:04.064Z,14.32
2023-02-15T22:08:30.468Z,14.87
2023-02-15T22:10:56.889Z,13.67
2023-02-15T22:13:23.351Z,13.12
2023-02-15T22:15:49.749Z,11.99
2023-02-15T22:18:16.175Z,11.91
2023-02-15T22:20:42.595Z,11.61
2023-02-15T22:23:08.995Z,11.50
2023-02-15T22:25:35.423Z,10.84
2023-02-15T22:28:01.830Z,10.99
2023-02-15T22:30:28.416Z,10.73
2023-02-15T22:32:54.846Z,11.77
2023-02-15T22:35:21.250Z,10.94
2023-02-15T22:37:47.675Z,10.78
2023-02-15T22:40:14.061Z,9.68
2023-02-15T22:42:40.463Z,8.68
2023-02-15T22:45:08.202Z,7.65
2023-02-15T22:47:34.622Z,7.68
2023-02-15T22:50:01.047Z,9.34
2023-02-15T22:52:27.446Z,10.96
2023-02-15T22:54:53.843Z,11.65
2023-02-15T22:57:20.258Z,10.46
2023-02-15T22:59:46.638Z,9.29
2023-02-15T23:02:13.037Z,9.21
2023-02-15T23:04:39.420Z,11.89
2023-02-15T23:07:05.840Z,14.25
2023-02-15T23:09:32.326Z,16.50
2023-02-15T23:11:58.743Z,17.70
2023-02-15T23:14:25.175Z,18.12
2023-02-15T23:16:51.637Z,18.22
2023-02-15T23:19:18.132Z,17.54
2023-02-15T23:21:44.560Z,21.38
2023-02-15T23:24:10.978Z,21.55
2023-02-15T23:26:37.494Z,19.65
2023-02-15T23:29:04.019Z,17.67
2023-02-15T23:31:30.618Z,17.35
2023-02-15T23:33:57.219Z,16.68
2023-02-15T23:36:23.620Z,15.43
2023-02-15T23:38:50.022Z,15.01
2023-02-15T23:41:16.460Z,15.97
2023-02-15T23:43:42.944Z,16.26
2023-02-15T23:46:09.385Z,13.40
2023-02-15T23:48:35.839Z,9.77
2023-02-15T23:51:02.682Z,6.97
2023-02-15T23:53:29.255Z,5.06
2023-02-15T23:55:55.648Z,4.81
2023-02-15T23:58:22.058Z,5.35
